createdAt,value
2023-05-16T00:00:25.873Z,14.71
2023-05-16T00:03:12.290Z,14.71
2023-05-16T00:05:57.953Z,14.72
2023-05-16T00:08:43.384Z,14.72
2023-05-16T00:11:29.081Z,14.70
2023-05-16T00:14:15.115Z,14.69
2023-05-16T00:17:01.125Z,14.64
2023-05-16T00:19:49.826Z,14.61
2023-05-16T00:22:34.838Z,14.57
2023-05-16T00:25:20.809Z,14.49
2023-05-16T00:28:07.169Z,14.45
2023-05-16T00:30:52.508Z,14.37
2023-05-16T00:33:38.333Z,14.35
2023-05-16T00:36:23.908Z,14.29
2023-05-16T00:39:11.483Z,14.26
2023-05-16T00:41:57.548Z,14.14
2023-05-16T00:44:43.307Z,14.08
2023-05-16T00:47:28.699Z,14.07
2023-05-16T00:50:14.166Z,14.01
2023-05-16T00:52:59.301Z,13.99
2023-05-16T00:55:45.669Z,13.95
2023-05-16T00:58:32.217Z,13.88
2023-05-16T01:01:18.740Z,13.88
2023-05-16T01:04:06.134Z,13.85
2023-05-16T01:06:53.050Z,13.79
2023-05-16T01:09:38.271Z,13.68
2023-05-16T01:12:51.289Z,13.59
2023-05-16T01:15:50.834Z,13.54
2023-05-16T01:18:57.092Z,13.47
2023-05-16T01:21:50.053Z,13.36
2023-05-16T01:24:51.052Z,13.32
2023-05-16T01:27:39.054Z,13.32
2023-05-16T01:30:25.207Z,13.31
2023-05-16T01:33:10.762Z,13.23
2023-05-16T01:36:03.751Z,13.19
2023-05-16T01:39:11.904Z,13.05
2023-05-16T01:42:12.814Z,12.99
2023-05-16T01:45:07.042Z,13.00
2023-05-16T01:48:02.751Z,12.94
2023-05-16T01:50:55.921Z,12.90
2023-05-16T01:53:41.256Z,12.84
2023-05-16T01:56:27.725Z,12.76
2023-05-16T01:59:14.374Z,12.73
2023-05-16T02:01:59.762Z,12.72
2023-05-16T02:04:44.908Z,12.70
2023-05-16T02:07:33.208Z,12.64
2023-05-16T02:10:19.653Z,12.63
2023-05-16T02:13:04.977Z,12.57
2023-05-16T02:15:50.624Z,12.56
2023-05-16T02:18:36.039Z,12.51
2023-05-16T02:21:21.047Z,12.40
2023-05-16T02:24:07.068Z,12.38
2023-05-16T02:26:52.140Z,12.28
2023-05-16T02:29:37.576Z,12.19
2023-05-16T02:32:23.323Z,12.21
2023-05-16T02:35:11.349Z,12.18
2023-05-16T02:37:57.258Z,12.14
2023-05-16T02:40:43.645Z,12.12
2023-05-16T02:43:28.716Z,12.14
2023-05-16T02:46:40.560Z,12.17
2023-05-16T02:49:26.318Z,12.13
2023-05-16T02:52:13.068Z,12.18
2023-05-16T02:55:16.028Z,12.20
2023-05-16T02:58:03.008Z,12.24
2023-05-16T03:00:48.403Z,12.14
2023-05-16T03:03:36.088Z,12.08
2023-05-16T03:06:21.718Z,12.02
2023-05-16T03:09:07.720Z,12.07
2023-05-16T03:11:52.777Z,12.08
2023-05-16T03:14:38.642Z,12.09
2023-05-16T03:17:24.135Z,12.13
2023-05-16T03:20:11.384Z,12.07
2023-05-16T03:22:57.040Z,12.07
2023-05-16T03:25:43.161Z,11.97
2023-05-16T03:28:28.583Z,11.92
2023-05-16T03:31:13.983Z,11.92
2023-05-16T03:33:59.437Z,11.97
2023-05-16T03:36:45.159Z,11.90
2023-05-16T03:39:30.634Z,11.91
2023-05-16T03:42:16.218Z,11.89
2023-05-16T03:45:01.630Z,11.81
2023-05-16T03:47:49.026Z,11.77
2023-05-16T03:50:34.490Z,11.71
2023-05-16T03:53:19.661Z,11.69
2023-05-16T03:56:05.220Z,11.71
2023-05-16T03:58:50.218Z,11.77
2023-05-16T04:01:35.240Z,11.72
2023-05-16T04:04:20.877Z,11.78
2023-05-16T04:07:06.556Z,11.82
2023-05-16T04:09:52.374Z,11.88
2023-05-16T04:12:37.736Z,11.83
2023-05-16T04:15:23.538Z,11.81
2023-05-16T04:18:09.990Z,11.80
2023-05-16T04:20:54.940Z,11.77
2023-05-16T04:23:41.136Z,11.69
2023-05-16T04:26:27.435Z,11.61
2023-05-16T04:29:14.249Z,11.57
2023-05-16T04:31:59.724Z,11.54
2023-05-16T04:34:46.512Z,11.56
2023-05-16T04:37:31.891Z,11.59
2023-05-16T04:40:17.258Z,11.63
2023-05-16T04:43:02.399Z,11.66
2023-05-16T04:45:48.808Z,11.53
2023-05-16T04:48:34.313Z,11.47
2023-05-16T04:51:19.485Z,11.42
2023-05-16T04:54:04.698Z,11.41
2023-05-16T04:56:50.373Z,11.36
2023-05-16T04:59:35.835Z,11.39
2023-05-16T05:02:21.088Z,11.37
2023-05-16T05:05:07.043Z,11.37
2023-05-16T05:07:52.582Z,11.45
2023-05-16T05:10:37.854Z,11.44
2023-05-16T05:13:24.020Z,11.47
2023-05-16T05:16:09.292Z,11.46
2023-05-16T05:18:54.575Z,11.35
2023-05-16T05:21:40.032Z,11.28
2023-05-16T05:24:25.222Z,11.28
2023-05-16T05:27:10.772Z,11.22
2023-05-16T05:29:56.085Z,11.28
2023-05-16T05:32:41.540Z,11.37
2023-05-16T05:35:26.935Z,11.44
2023-05-16T05:38:12.367Z,11.48
2023-05-16T05:40:57.673Z,11.44
2023-05-16T05:43:43.003Z,11.47
2023-05-16T05:46:28.267Z,11.53
2023-05-16T05:49:13.541Z,11.56
2023-05-16T05:51:58.779Z,11.65
2023-05-16T05:54:44.024Z,11.67
2023-05-16T05:57:28.993Z,11.68
2023-05-16T06:00:14.693Z,11.75
2023-05-16T06:03:00.116Z,11.89
2023-05-16T06:05:46.164Z,11.89
2023-05-16T06:08:31.502Z,11.91
2023-05-16T06:11:19.403Z,11.97
2023-05-16T06:14:05.265Z,12.06
2023-05-16T06:16:50.738Z,11.95
2023-05-16T06:19:35.838Z,11.82
2023-05-16T06:22:21.189Z,11.88
2023-05-16T06:25:06.946Z,11.87
2023-05-16T06:27:52.520Z,11.85
2023-05-16T06:30:37.663Z,11.85
2023-05-16T06:33:23.490Z,11.85
2023-05-16T06:36:08.825Z,11.94
2023-05-16T06:38:55.230Z,12.05
2023-05-16T06:41:40.563Z,12.11
2023-05-16T06:44:30.208Z,12.02
2023-05-16T06:47:16.055Z,11.90
2023-05-16T06:50:01.718Z,11.90
2023-05-16T06:52:47.541Z,11.96
2023-05-16T06:55:33.871Z,11.83
2023-05-16T06:58:19.435Z,11.78
2023-05-16T07:01:04.830Z,11.89
2023-05-16T07:03:50.283Z,11.96
2023-05-16T07:06:36.056Z,12.00
2023-05-16T07:09:21.475Z,12.11
2023-05-16T07:12:07.315Z,12.00
2023-05-16T07:14:52.426Z,11.97
2023-05-16T07:17:38.109Z,11.96
2023-05-16T07:20:23.791Z,12.06
2023-05-16T07:23:08.945Z,12.20
2023-05-16T07:25:54.639Z,12.18
2023-05-16T07:28:39.696Z,12.04
2023-05-16T07:31:25.375Z,12.21
2023-05-16T07:34:11.502Z,12.47
2023-05-16T07:36:56.555Z,12.78
2023-05-16T07:39:42.722Z,13.00
2023-05-16T07:42:27.905Z,13.15
2023-05-16T07:45:13.436Z,13.06
2023-05-16T07:48:00.017Z,13.12
2023-05-16T07:50:45.474Z,13.00
2023-05-16T07:53:30.705Z,12.65
2023-05-16T07:56:16.186Z,12.42
2023-05-16T07:59:01.486Z,12.27
2023-05-16T08:01:47.734Z,12.32
2023-05-16T08:04:32.870Z,12.29
2023-05-16T08:07:18.320Z,12.17
2023-05-16T08:10:03.976Z,12.13
2023-05-16T08:12:49.431Z,12.08
2023-05-16T08:15:34.596Z,12.02
2023-05-16T08:18:22.864Z,12.07
2023-05-16T08:21:09.182Z,12.12
2023-05-16T08:23:57.654Z,12.29
2023-05-16T08:26:42.693Z,12.36
2023-05-16T08:29:28.378Z,12.35
2023-05-16T08:32:13.450Z,12.39
2023-05-16T08:34:58.870Z,12.48
2023-05-16T08:37:44.110Z,12.64
2023-05-16T08:40:29.431Z,12.74
2023-05-16T08:43:15.033Z,12.77
2023-05-16T08:46:00.719Z,12.83
2023-05-16T08:48:47.061Z,12.72
2023-05-16T08:51:36.187Z,12.64
2023-05-16T08:54:22.688Z,12.71
2023-05-16T08:57:09.342Z,12.85
2023-05-16T08:59:59.264Z,12.92
2023-05-16T09:02:46.421Z,13.06
2023-05-16T09:05:32.925Z,13.13
2023-05-16T09:08:18.507Z,13.19
2023-05-16T09:11:03.973Z,12.94
2023-05-16T09:13:49.761Z,12.86
2023-05-16T09:16:35.089Z,12.88
2023-05-16T09:19:23.282Z,12.90
2023-05-16T09:22:13.746Z,12.85
2023-05-16T09:25:00.058Z,12.85
2023-05-16T09:27:52.469Z,12.89
2023-05-16T09:30:39.407Z,13.01
2023-05-16T09:33:26.869Z,13.17
2023-05-16T09:36:12.260Z,13.05
2023-05-16T09:38:57.669Z,12.89
2023-05-16T09:41:43.172Z,13.01
2023-05-16T09:44:28.559Z,13.13
2023-05-16T09:47:16.732Z,13.12
2023-05-16T09:50:02.394Z,13.08
2023-05-16T09:52:47.970Z,12.94
2023-05-16T09:55:33.461Z,12.98
2023-05-16T09:58:18.986Z,12.95
2023-05-16T10:01:05.955Z,12.94
2023-05-16T10:03:51.518Z,12.94
2023-05-16T10:06:37.623Z,12.96
2023-05-16T10:09:24.429Z,13.02
2023-05-16T10:12:13.063Z,12.94
2023-05-16T10:15:01.411Z,12.83
2023-05-16T10:17:53.259Z,12.92
2023-05-16T10:20:45.225Z,13.02
2023-05-16T10:23:32.607Z,13.01
2023-05-16T10:26:18.371Z,13.01
2023-05-16T10:29:04.754Z,13.10
2023-05-16T10:31:50.358Z,13.39
2023-05-16T10:34:35.992Z,13.58
2023-05-16T10:37:23.446Z,13.61
2023-05-16T10:40:10.153Z,13.49
2023-05-16T10:43:03.235Z,13.42
2023-05-16T10:45:55.325Z,13.28
2023-05-16T10:48:42.186Z,13.31
2023-05-16T10:51:34.803Z,13.11
2023-05-16T10:54:25.030Z,13.08
2023-05-16T10:57:20.837Z,13.06
2023-05-16T11:00:07.987Z,13.12
2023-05-16T11:02:53.271Z,13.24
2023-05-16T11:05:39.354Z,13.39
2023-05-16T11:08:24.568Z,13.70
2023-05-16T11:11:42.823Z,13.99
2023-05-16T11:14:37.529Z,14.29
2023-05-16T11:17:24.944Z,14.43
2023-05-16T11:20:25.813Z,14.42
2023-05-16T11:23:17.375Z,14.42
2023-05-16T11:26:03.365Z,14.15
2023-05-16T11:28:52.354Z,13.90
2023-05-16T11:31:37.495Z,13.75
2023-05-16T11:34:22.674Z,13.68
2023-05-16T11:37:11.171Z,13.68
2023-05-16T11:40:04.343Z,13.76
2023-05-16T11:42:49.746Z,13.60
2023-05-16T11:45:35.141Z,13.41
2023-05-16T11:48:35.757Z,13.62
2023-05-16T11:51:21.991Z,14.38
2023-05-16T11:54:09.426Z,14.88
2023-05-16T11:56:55.123Z,15.29
2023-05-16T11:59:48.008Z,15.42
2023-05-16T12:02:33.582Z,15.58
2023-05-16T12:05:25.129Z,15.44
2023-05-16T12:08:10.920Z,15.48
2023-05-16T12:10:58.814Z,15.52
2023-05-16T12:13:44.490Z,15.33
2023-05-16T12:16:30.113Z,14.98
2023-05-16T12:19:19.022Z,14.98
2023-05-16T12:22:04.665Z,14.99
2023-05-16T12:24:50.893Z,15.05
2023-05-16T12:27:36.285Z,14.89
2023-05-16T12:30:26.655Z,15.12
2023-05-16T12:33:15.608Z,15.27
2023-05-16T12:36:01.748Z,15.42
2023-05-16T12:38:48.147Z,15.45
2023-05-16T12:41:41.245Z,15.50
2023-05-16T12:44:30.213Z,15.44
2023-05-16T12:47:16.171Z,15.23
2023-05-16T12:50:02.227Z,15.39
2023-05-16T12:52:53.117Z,15.87
2023-05-16T12:55:38.736Z,16.17
2023-05-16T12:58:24.095Z,16.17
2023-05-16T13:01:09.887Z,16.24
2023-05-16T13:03:55.230Z,16.12
2023-05-16T13:06:57.313Z,15.95
2023-05-16T13:09:44.613Z,15.98
2023-05-16T13:12:30.377Z,15.76
2023-05-16T13:15:15.746Z,15.67
2023-05-16T13:18:01.259Z,15.42
2023-05-16T13:20:46.588Z,15.44
2023-05-16T13:23:34.820Z,15.56
2023-05-16T13:26:21.537Z,15.50
2023-05-16T13:29:09.605Z,15.54
2023-05-16T13:31:54.656Z,15.60
2023-05-16T13:34:39.781Z,15.76
2023-05-16T13:37:25.762Z,15.72
2023-05-16T13:40:11.328Z,15.89
2023-05-16T13:42:57.401Z,16.02
2023-05-16T13:45:44.089Z,16.20
2023-05-16T13:48:29.022Z,15.99
2023-05-16T13:51:14.821Z,16.05
2023-05-16T13:54:00.420Z,16.05
2023-05-16T13:56:46.245Z,16.08
2023-05-16T13:59:56.756Z,16.42
2023-05-16T14:02:36.858Z,16.29
2023-05-16T14:05:22.956Z,16.05
2023-05-16T14:08:10.530Z,15.94
2023-05-16T14:10:55.976Z,15.89
2023-05-16T14:13:41.570Z,15.93
2023-05-16T14:16:27.207Z,16.11
2023-05-16T14:19:14.302Z,16.03
2023-05-16T14:22:00.893Z,16.33
2023-05-16T14:24:46.561Z,16.70
2023-05-16T14:27:32.035Z,16.76
2023-05-16T14:30:17.701Z,16.68
2023-05-16T14:33:03.765Z,16.92
2023-05-16T14:35:50.104Z,16.84
2023-05-16T14:38:35.644Z,16.79
2023-05-16T14:41:21.283Z,16.78
2023-05-16T14:44:06.804Z,16.73
2023-05-16T14:46:52.048Z,16.75
2023-05-16T14:49:37.701Z,16.78
2023-05-16T14:52:22.936Z,16.71
2023-05-16T14:55:08.134Z,16.66
2023-05-16T14:57:59.268Z,16.61
2023-05-16T15:00:44.983Z,16.64
2023-05-16T15:03:37.818Z,16.73
2023-05-16T15:06:32.755Z,16.91
2023-05-16T15:09:19.219Z,17.08
2023-05-16T15:12:05.386Z,17.19
2023-05-16T15:14:50.884Z,16.91
2023-05-16T15:17:36.325Z,16.95
2023-05-16T15:20:22.818Z,16.94
2023-05-16T15:23:08.183Z,16.98
2023-05-16T15:25:53.732Z,16.97
2023-05-16T15:28:39.354Z,17.03
2023-05-16T15:31:24.838Z,17.20
2023-05-16T15:34:11.621Z,17.16
2023-05-16T15:36:56.691Z,17.23
2023-05-16T15:39:42.397Z,17.16
2023-05-16T15:42:27.955Z,17.09
2023-05-16T15:45:13.394Z,16.92
2023-05-16T15:47:58.738Z,16.83
2023-05-16T15:50:44.162Z,16.71
2023-05-16T15:53:29.795Z,16.58
2023-05-16T15:56:15.063Z,16.52
2023-05-16T15:59:00.526Z,16.66
2023-05-16T16:01:46.097Z,16.86
2023-05-16T16:04:31.869Z,16.65
2023-05-16T16:07:17.189Z,16.58
2023-05-16T16:10:02.530Z,16.53
2023-05-16T16:13:04.349Z,16.51
2023-05-16T16:15:49.801Z,16.72
2023-05-16T16:18:35.252Z,16.77
2023-05-16T16:21:20.797Z,16.50
2023-05-16T16:24:06.274Z,16.60
2023-05-16T16:26:51.454Z,16.79
2023-05-16T16:29:36.779Z,16.77
2023-05-16T16:32:21.879Z,16.79
2023-05-16T16:35:07.305Z,16.81
2023-05-16T16:38:05.630Z,16.88
2023-05-16T16:40:52.073Z,16.79
2023-05-16T16:43:40.043Z,16.74
2023-05-16T16:46:25.679Z,16.63
2023-05-16T16:49:10.908Z,16.56
2023-05-16T16:51:57.823Z,16.50
2023-05-16T16:54:42.950Z,16.22
2023-05-16T16:57:28.124Z,16.20
2023-05-16T17:00:14.169Z,16.26
2023-05-16T17:02:59.729Z,16.34
2023-05-16T17:05:45.454Z,16.41
2023-05-16T17:08:30.904Z,16.32
2023-05-16T17:11:22.780Z,16.13
2023-05-16T17:14:10.750Z,16.04
2023-05-16T17:16:56.823Z,16.02
2023-05-16T17:19:42.610Z,15.97
2023-05-16T17:22:28.089Z,15.79
2023-05-16T17:25:13.436Z,15.80
2023-05-16T17:27:59.014Z,15.77
2023-05-16T17:30:44.725Z,15.68
2023-05-16T17:33:29.994Z,15.46
2023-05-16T17:36:15.612Z,15.45
2023-05-16T17:39:01.044Z,15.37
2023-05-16T17:41:46.882Z,15.35
2023-05-16T17:44:32.325Z,15.33
2023-05-16T17:47:19.406Z,15.27
2023-05-16T17:50:06.590Z,15.27
2023-05-16T17:52:54.013Z,15.23
2023-05-16T17:55:39.123Z,15.20
2023-05-16T17:58:24.730Z,15.19
2023-05-16T18:01:10.203Z,15.19
2023-05-16T18:03:55.720Z,15.10
2023-05-16T18:06:41.262Z,15.00
2023-05-16T18:09:26.815Z,14.85
2023-05-16T18:12:12.140Z,14.75
2023-05-16T18:14:57.787Z,14.69
2023-05-16T18:17:43.669Z,14.58
2023-05-16T18:20:29.008Z,14.51
2023-05-16T18:23:14.444Z,14.41
2023-05-16T18:26:00.025Z,14.36
2023-05-16T18:28:45.783Z,14.31
2023-05-16T18:31:33.493Z,14.28
2023-05-16T18:34:18.824Z,14.23
2023-05-16T18:37:04.366Z,14.18
2023-05-16T18:39:50.021Z,14.10
2023-05-16T18:42:35.096Z,14.06
2023-05-16T18:45:21.981Z,13.97
2023-05-16T18:48:07.581Z,13.91
2023-05-16T18:50:53.323Z,13.84
2023-05-16T18:53:38.673Z,13.79
2023-05-16T18:56:23.982Z,13.69
2023-05-16T18:59:09.547Z,13.66
2023-05-16T19:01:54.859Z,13.63
2023-05-16T19:04:40.280Z,13.55
2023-05-16T19:07:25.697Z,13.49
2023-05-16T19:10:11.657Z,13.49
2023-05-16T19:12:56.887Z,13.44
2023-05-16T19:15:42.320Z,13.41
2023-05-16T19:18:27.745Z,13.35
2023-05-16T19:21:13.586Z,13.28
2023-05-16T19:23:58.963Z,13.24
2023-05-16T19:26:44.352Z,13.20
2023-05-16T19:29:29.991Z,13.15
2023-05-16T19:32:15.464Z,13.08
2023-05-16T19:35:01.228Z,13.03
2023-05-16T19:37:46.660Z,13.01
2023-05-16T19:40:34.148Z,12.97
2023-05-16T19:43:22.220Z,12.90
2023-05-16T19:46:09.252Z,12.90
2023-05-16T19:48:54.680Z,12.84
2023-05-16T19:51:42.174Z,12.78
2023-05-16T19:54:30.766Z,12.76
2023-05-16T19:57:15.740Z,12.76
2023-05-16T20:00:01.165Z,12.67
2023-05-16T20:02:46.566Z,12.62
2023-05-16T20:05:32.320Z,12.56
2023-05-16T20:08:17.399Z,12.49
2023-05-16T20:11:02.823Z,12.48
2023-05-16T20:13:48.411Z,12.39
2023-05-16T20:16:34.192Z,12.33
2023-05-16T20:19:19.904Z,12.30
2023-05-16T20:22:05.571Z,12.22
2023-05-16T20:24:51.103Z,12.19
2023-05-16T20:27:36.567Z,12.16
2023-05-16T20:30:21.777Z,12.11
2023-05-16T20:33:07.088Z,12.10
2023-05-16T20:35:52.507Z,12.07
2023-05-16T20:38:38.789Z,12.06
2023-05-16T20:41:24.021Z,12.00
2023-05-16T20:44:09.600Z,11.97
2023-05-16T20:46:54.916Z,11.92
2023-05-16T20:49:40.095Z,11.87
2023-05-16T20:52:25.481Z,11.81
2023-05-16T20:55:10.936Z,11.78
2023-05-16T20:57:56.630Z,11.73
2023-05-16T21:00:42.096Z,11.68
2023-05-16T21:03:27.726Z,11.61
2023-05-16T21:06:12.966Z,11.60
2023-05-16T21:08:58.525Z,11.54
2023-05-16T21:11:43.708Z,11.52
2023-05-16T21:14:29.206Z,11.47
2023-05-16T21:17:14.618Z,11.46
2023-05-16T21:20:00.029Z,11.51
2023-05-16T21:22:45.457Z,11.51
2023-05-16T21:25:30.697Z,11.49
2023-05-16T21:28:16.073Z,11.46
2023-05-16T21:31:01.439Z,11.47
2023-05-16T21:33:46.631Z,11.46
2023-05-16T21:36:32.213Z,11.39
2023-05-16T21:39:17.586Z,11.36
2023-05-16T21:42:03.313Z,11.29
2023-05-16T21:44:48.828Z,11.24
2023-05-16T21:47:34.158Z,11.16
2023-05-16T21:50:19.559Z,11.15
2023-05-16T21:53:04.840Z,11.12
2023-05-16T21:55:50.224Z,11.09
2023-05-16T21:58:35.943Z,11.03
2023-05-16T22:01:28.606Z,11.05
2023-05-16T22:04:14.234Z,11.06
2023-05-16T22:06:59.584Z,11.02
2023-05-16T22:09:45.614Z,11.03
2023-05-16T22:12:31.023Z,10.96
2023-05-16T22:15:16.181Z,10.95
2023-05-16T22:18:01.569Z,10.96
2023-05-16T22:20:46.792Z,10.94
2023-05-16T22:23:32.478Z,10.97
2023-05-16T22:26:18.394Z,10.95
2023-05-16T22:29:03.608Z,10.90
2023-05-16T22:31:49.000Z,10.88
2023-05-16T22:34:36.009Z,10.82
2023-05-16T22:37:21.370Z,10.81
2023-05-16T22:40:09.303Z,10.80
2023-05-16T22:42:54.741Z,10.80
2023-05-16T22:45:40.214Z,10.74
2023-05-16T22:48:25.313Z,10.73
2023-05-16T22:51:10.935Z,10.70
2023-05-16T22:53:56.591Z,10.69
2023-05-16T22:56:41.755Z,10.68
2023-05-16T22:59:27.229Z,10.66
2023-05-16T23:02:12.616Z,10.61
2023-05-16T23:04:58.370Z,10.57
2023-05-16T23:07:43.810Z,10.57
2023-05-16T23:10:29.255Z,10.59
2023-05-16T23:13:14.460Z,10.55
2023-05-16T23:15:59.724Z,10.51
2023-05-16T23:18:45.259Z,10.53
2023-05-16T23:21:31.217Z,10.55
2023-05-16T23:24:16.593Z,10.55
2023-05-16T23:27:02.041Z,10.56
2023-05-16T23:29:47.425Z,10.56
2023-05-16T23:32:32.680Z,10.49
2023-05-16T23:35:18.133Z,10.44
2023-05-16T23:38:03.116Z,10.45
2023-05-16T23:40:48.612Z,10.39
2023-05-16T23:43:33.901Z,10.37
2023-05-16T23:46:19.267Z,10.34
2023-05-16T23:49:04.882Z,10.30
2023-05-16T23:51:57.558Z,10.22
2023-05-16T23:54:45.313Z,10.21
2023-05-16T23:57:30.674Z,10.16
